sensor_id;sensor_type;location;lat;lon;timestamp;P1;durP1;ratioP1;P2;durP2;ratioP2
80539;SDS011;69869;48.036;15.780;2024-02-26T00:01:40;1.90;;;1.52;;
80539;SDS011;69869;48.036;15.780;2024-02-26T00:04:05;2.20;;;1.52;;
80539;SDS011;69869;48.036;15.780;2024-02-26T00:06:31;2.55;;;2.03;;
80539;SDS011;69869;48.036;15.780;2024-02-26T00:08:57;1.60;;;1.38;;
80539;SDS011;69869;48.036;15.780;2024-02-26T00:11:23;1.52;;;1.42;;
80539;SDS011;69869;48.036;15.780;2024-02-26T00:13:49;1.77;;;1.42;;
80539;SDS011;69869;48.036;15.780;2024-02-26T00:16:14;1.92;;;1.55;;
80539;SDS011;69869;48.036;15.780;2024-02-26T00:18:40;1.45;;;1.35;;
80539;SDS011;69869;48.036;15.780;2024-02-26T00:21:09;1.40;;;1.30;;
80539;SDS011;69869;48.036;15.780;2024-02-26T00:23:34;1.40;;;1.30;;
80539;SDS011;69869;48.036;15.780;2024-02-26T00:26:00;2.83;;;1.25;;
80539;SDS011;69869;48.036;15.780;2024-02-26T00:28:26;1.60;;;1.30;;
80539;SDS011;69869;48.036;15.780;2024-02-26T00:30:52;1.67;;;1.27;;
80539;SDS011;69869;48.036;15.780;2024-02-26T00:33:21;1.60;;;1.50;;
80539;SDS011;69869;48.036;15.780;2024-02-26T00:35:47;1.48;;;1.38;;
80539;SDS011;69869;48.036;15.780;2024-02-26T00:38:13;1.33;;;1.23;;
80539;SDS011;69869;48.036;15.780;2024-02-26T00:40:39;1.40;;;1.30;;
80539;SDS011;69869;48.036;15.780;2024-02-26T00:43:05;1.50;;;1.40;;
80539;SDS011;69869;48.036;15.780;2024-02-26T00:45:31;1.70;;;1.20;;
80539;SDS011;69869;48.036;15.780;2024-02-26T00:47:58;1.30;;;1.20;;
80539;SDS011;69869;48.036;15.780;2024-02-26T00:50:26;1.58;;;1.30;;
80539;SDS011;69869;48.036;15.780;2024-02-26T00:52:51;1.67;;;1.20;;
80539;SDS011;69869;48.036;15.780;2024-02-26T00:55:17;1.35;;;1.20;;
80539;SDS011;69869;48.036;15.780;2024-02-26T00:57:43;1.83;;;1.20;;
80539;SDS011;69869;48.036;15.780;2024-02-26T01:00:08;1.30;;;1.20;;
80539;SDS011;69869;48.036;15.780;2024-02-26T01:02:35;1.52;;;1.17;;
80539;SDS011;69869;48.036;15.780;2024-02-26T01:05:00;2.53;;;1.50;;
80539;SDS011;69869;48.036;15.780;2024-02-26T01:07:26;2.30;;;1.20;;
80539;SDS011;69869;48.036;15.780;2024-02-26T01:09:51;1.25;;;1.10;;
80539;SDS011;69869;48.036;15.780;2024-02-26T01:12:17;1.52;;;1.27;;
80539;SDS011;69869;48.036;15.780;2024-02-26T01:14:42;1.30;;;1.20;;
80539;SDS011;69869;48.036;15.780;2024-02-26T01:17:08;1.55;;;1.30;;
80539;SDS011;69869;48.036;15.780;2024-02-26T01:19:34;1.40;;;1.30;;
80539;SDS011;69869;48.036;15.780;2024-02-26T01:21:59;2.28;;;1.40;;
80539;SDS011;69869;48.036;15.780;2024-02-26T01:24:25;1.60;;;1.50;;
80539;SDS011;69869;48.036;15.780;2024-02-26T01:26:51;1.65;;;1.40;;
80539;SDS011;69869;48.036;15.780;2024-02-26T01:29:17;1.90;;;1.40;;
80539;SDS011;69869;48.036;15.780;2024-02-26T01:31:43;1.52;;;1.42;;
80539;SDS011;69869;48.036;15.780;2024-02-26T01:34:08;2.63;;;1.40;;
80539;SDS011;69869;48.036;15.780;2024-02-26T01:36:34;1.90;;;1.52;;
80539;SDS011;69869;48.036;15.780;2024-02-26T01:39:00;1.67;;;1.38;;
80539;SDS011;69869;48.036;15.780;2024-02-26T01:41:28;1.45;;;1.33;;
80539;SDS011;69869;48.036;15.780;2024-02-26T01:43:54;1.52;;;1.42;;
80539;SDS011;69869;48.036;15.780;2024-02-26T01:46:19;1.52;;;1.42;;
80539;SDS011;69869;48.036;15.780;2024-02-26T01:48:45;2.33;;;1.13;;
80539;SDS011;69869;48.036;15.780;2024-02-26T01:51:12;1.83;;;1.40;;
80539;SDS011;69869;48.036;15.780;2024-02-26T01:53:40;1.40;;;1.30;;
80539;SDS011;69869;48.036;15.780;2024-02-26T01:56:06;2.20;;;1.40;;
80539;SDS011;69869;48.036;15.780;2024-02-26T01:58:33;1.73;;;1.42;;
80539;SDS011;69869;48.036;15.780;2024-02-26T02:01:00;1.80;;;1.33;;
80539;SDS011;69869;48.036;15.780;2024-02-26T02:03:27;1.88;;;1.40;;
80539;SDS011;69869;48.036;15.780;2024-02-26T02:05:53;1.35;;;1.17;;
80539;SDS011;69869;48.036;15.780;2024-02-26T02:08:19;1.35;;;1.25;;
80539;SDS011;69869;48.036;15.780;2024-02-26T02:10:45;2.00;;;1.10;;
80539;SDS011;69869;48.036;15.780;2024-02-26T02:13:13;1.38;;;1.27;;
80539;SDS011;69869;48.036;15.780;2024-02-26T02:15:39;1.30;;;1.20;;
80539;SDS011;69869;48.036;15.780;2024-02-26T02:18:05;1.30;;;1.20;;
80539;SDS011;69869;48.036;15.780;2024-02-26T02:20:32;1.20;;;1.10;;
80539;SDS011;69869;48.036;15.780;2024-02-26T02:22:58;1.95;;;1.40;;
80539;SDS011;69869;48.036;15.780;2024-02-26T02:25:24;1.25;;;1.15;;
80539;SDS011;69869;48.036;15.780;2024-02-26T02:27:50;1.38;;;1.10;;
80539;SDS011;69869;48.036;15.780;2024-02-26T02:30:18;1.35;;;1.25;;
80539;SDS011;69869;48.036;15.780;2024-02-26T02:32:44;1.35;;;1.25;;
80539;SDS011;69869;48.036;15.780;2024-02-26T02:35:10;1.30;;;1.20;;
80539;SDS011;69869;48.036;15.780;2024-02-26T02:37:36;1.45;;;1.20;;
80539;SDS011;69869;48.036;15.780;2024-02-26T02:40:02;1.35;;;1.25;;
80539;SDS011;69869;48.036;15.780;2024-02-26T02:42:28;1.88;;;1.27;;
80539;SDS011;69869;48.036;15.780;2024-02-26T02:44:53;1.88;;;1.10;;
80539;SDS011;69869;48.036;15.780;2024-02-26T02:47:19;1.30;;;1.20;;
80539;SDS011;69869;48.036;15.780;2024-02-26T02:49:45;1.30;;;1.20;;
80539;SDS011;69869;48.036;15.780;2024-02-26T02:52:10;1.40;;;1.30;;
80539;SDS011;69869;48.036;15.780;2024-02-26T02:54:36;1.10;;;1.08;;
80539;SDS011;69869;48.036;15.780;2024-02-26T02:57:05;2.22;;;1.50;;
80539;SDS011;69869;48.036;15.780;2024-02-26T02:59:31;1.50;;;1.30;;
80539;SDS011;69869;48.036;15.780;2024-02-26T03:01:56;1.30;;;1.17;;
80539;SDS011;69869;48.036;15.780;2024-02-26T03:04:22;1.33;;;1.23;;
80539;SDS011;69869;48.036;15.780;2024-02-26T03:06:48;1.20;;;1.10;;
80539;SDS011;69869;48.036;15.780;2024-02-26T03:09:13;1.30;;;1.20;;
80539;SDS011;69869;48.036;15.780;2024-02-26T03:11:39;1.38;;;1.23;;
80539;SDS011;69869;48.036;15.780;2024-02-26T03:14:05;2.08;;;1.13;;
80539;SDS011;69869;48.036;15.780;2024-02-26T03:16:31;1.13;;;1.00;;
80539;SDS011;69869;48.036;15.780;2024-02-26T03:18:57;1.08;;;1.08;;
80539;SDS011;69869;48.036;15.780;2024-02-26T03:21:24;1.63;;;1.17;;
80539;SDS011;69869;48.036;15.780;2024-02-26T03:23:50;1.35;;;1.25;;
80539;SDS011;69869;48.036;15.780;2024-02-26T03:26:16;1.85;;;1.27;;
80539;SDS011;69869;48.036;15.780;2024-02-26T03:28:42;1.90;;;1.20;;
80539;SDS011;69869;48.036;15.780;2024-02-26T03:31:07;1.55;;;1.20;;
80539;SDS011;69869;48.036;15.780;2024-02-26T03:33:33;1.50;;;1.10;;
80539;SDS011;69869;48.036;15.780;2024-02-26T03:35:59;1.27;;;1.17;;
80539;SDS011;69869;48.036;15.780;2024-02-26T03:38:25;1.15;;;1.00;;
80539;SDS011;69869;48.036;15.780;2024-02-26T03:40:51;1.05;;;0.90;;
80539;SDS011;69869;48.036;15.780;2024-02-26T03:43:16;1.20;;;1.10;;
80539;SDS011;69869;48.036;15.780;2024-02-26T03:45:42;1.00;;;0.98;;
80539;SDS011;69869;48.036;15.780;2024-02-26T03:48:08;1.10;;;1.00;;
80539;SDS011;69869;48.036;15.780;2024-02-26T03:50:33;1.13;;;1.02;;
80539;SDS011;69869;48.036;15.780;2024-02-26T03:52:59;2.40;;;1.15;;
80539;SDS011;69869;48.036;15.780;2024-02-26T03:55:25;0.90;;;0.90;;
80539;SDS011;69869;48.036;15.780;2024-02-26T03:57:54;0.90;;;0.90;;
80539;SDS011;69869;48.036;15.780;2024-02-26T04:00:19;1.35;;;1.00;;
80539;SDS011;69869;48.036;15.780;2024-02-26T04:02:48;1.00;;;1.00;;
80539;SDS011;69869;48.036;15.780;2024-02-26T04:05:14;1.13;;;1.02;;
80539;SDS011;69869;48.036;15.780;2024-02-26T04:07:40;1.02;;;0.93;;
80539;SDS011;69869;48.036;15.780;2024-02-26T04:10:09;0.90;;;0.90;;
80539;SDS011;69869;48.036;15.780;2024-02-26T04:12:35;0.80;;;0.80;;
80539;SDS011;69869;48.036;15.780;2024-02-26T04:15:03;0.95;;;0.95;;
80539;SDS011;69869;48.036;15.780;2024-02-26T04:17:29;0.90;;;0.90;;
80539;SDS011;69869;48.036;15.780;2024-02-26T04:19:55;1.17;;;1.10;;
80539;SDS011;69869;48.036;15.780;2024-02-26T04:22:20;1.35;;;1.00;;
80539;SDS011;69869;48.036;15.780;2024-02-26T04:24:46;1.52;;;1.10;;
80539;SDS011;69869;48.036;15.780;2024-02-26T04:27:12;1.00;;;0.90;;
80539;SDS011;69869;48.036;15.780;2024-02-26T04:29:37;1.00;;;1.00;;
80539;SDS011;69869;48.036;15.780;2024-02-26T04:32:03;1.27;;;1.10;;
80539;SDS011;69869;48.036;15.780;2024-02-26T04:34:29;1.23;;;1.10;;
80539;SDS011;69869;48.036;15.780;2024-02-26T04:36:55;1.02;;;1.00;;
80539;SDS011;69869;48.036;15.780;2024-02-26T04:39:20;1.08;;;1.08;;
80539;SDS011;69869;48.036;15.780;2024-02-26T04:41:46;1.20;;;1.10;;
80539;SDS011;69869;48.036;15.780;2024-02-26T04:44:12;1.08;;;1.00;;
80539;SDS011;69869;48.036;15.780;2024-02-26T04:46:37;1.25;;;1.15;;
80539;SDS011;69869;48.036;15.780;2024-02-26T04:49:03;1.30;;;1.20;;
80539;SDS011;69869;48.036;15.780;2024-02-26T04:51:29;1.73;;;1.38;;
80539;SDS011;69869;48.036;15.780;2024-02-26T04:53:54;1.73;;;1.20;;
80539;SDS011;69869;48.036;15.780;2024-02-26T04:56:20;1.10;;;1.00;;
80539;SDS011;69869;48.036;15.780;2024-02-26T04:58:46;1.67;;;1.20;;
80539;SDS011;69869;48.036;15.780;2024-02-26T05:01:13;1.33;;;1.10;;
80539;SDS011;69869;48.036;15.780;2024-02-26T05:03:38;1.35;;;1.08;;
80539;SDS011;69869;48.036;15.780;2024-02-26T05:06:04;1.10;;;1.00;;
80539;SDS011;69869;48.036;15.780;2024-02-26T05:08:30;1.00;;;0.90;;
80539;SDS011;69869;48.036;15.780;2024-02-26T05:10:56;2.30;;;1.02;;
80539;SDS011;69869;48.036;15.780;2024-02-26T05:13:22;1.10;;;1.10;;
80539;SDS011;69869;48.036;15.780;2024-02-26T05:15:47;1.13;;;1.10;;
80539;SDS011;69869;48.036;15.780;2024-02-26T05:18:14;1.23;;;1.10;;
80539;SDS011;69869;48.036;15.780;2024-02-26T05:20:40;1.30;;;1.20;;
80539;SDS011;69869;48.036;15.780;2024-02-26T05:23:06;1.30;;;1.20;;
80539;SDS011;69869;48.036;15.780;2024-02-26T05:25:31;1.40;;;1.30;;
80539;SDS011;69869;48.036;15.780;2024-02-26T05:27:57;1.92;;;1.30;;
80539;SDS011;69869;48.036;15.780;2024-02-26T05:30:23;1.40;;;1.30;;
80539;SDS011;69869;48.036;15.780;2024-02-26T05:32:48;3.30;;;1.48;;
80539;SDS011;69869;48.036;15.780;2024-02-26T05:35:14;2.38;;;1.30;;
80539;SDS011;69869;48.036;15.780;2024-02-26T05:37:40;2.75;;;1.30;;
80539;SDS011;69869;48.036;15.780;2024-02-26T05:40:05;1.85;;;1.60;;
80539;SDS011;69869;48.036;15.780;2024-02-26T05:42:31;2.92;;;1.60;;
80539;SDS011;69869;48.036;15.780;2024-02-26T05:44:58;1.65;;;1.50;;
80539;SDS011;69869;48.036;15.780;2024-02-26T05:47:24;1.98;;;1.50;;
80539;SDS011;69869;48.036;15.780;2024-02-26T05:49:49;1.30;;;1.20;;
80539;SDS011;69869;48.036;15.780;2024-02-26T05:52:15;1.77;;;1.40;;
80539;SDS011;69869;48.036;15.780;2024-02-26T05:54:41;3.60;;;1.75;;
80539;SDS011;69869;48.036;15.780;2024-02-26T05:57:06;1.63;;;1.48;;
80539;SDS011;69869;48.036;15.780;2024-02-26T05:59:32;2.25;;;1.50;;
80539;SDS011;69869;48.036;15.780;2024-02-26T06:01:57;1.73;;;1.45;;
80539;SDS011;69869;48.036;15.780;2024-02-26T06:04:23;3.25;;;1.90;;
80539;SDS011;69869;48.036;15.780;2024-02-26T06:06:49;2.28;;;1.80;;
80539;SDS011;69869;48.036;15.780;2024-02-26T06:09:14;3.10;;;1.70;;
80539;SDS011;69869;48.036;15.780;2024-02-26T06:11:40;2.50;;;1.70;;
80539;SDS011;69869;48.036;15.780;2024-02-26T06:14:06;3.85;;;1.90;;
80539;SDS011;69869;48.036;15.780;2024-02-26T06:16:31;2.72;;;2.00;;
80539;SDS011;69869;48.036;15.780;2024-02-26T06:18:58;3.03;;;1.90;;
80539;SDS011;69869;48.036;15.780;2024-02-26T06:21:25;3.03;;;1.90;;
80539;SDS011;69869;48.036;15.780;2024-02-26T06:23:51;3.50;;;1.83;;
80539;SDS011;69869;48.036;15.780;2024-02-26T06:26:19;2.47;;;1.88;;
80539;SDS011;69869;48.036;15.780;2024-02-26T06:28:45;3.00;;;1.95;;
80539;SDS011;69869;48.036;15.780;2024-02-26T06:31:11;2.58;;;1.80;;
80539;SDS011;69869;48.036;15.780;2024-02-26T06:33:36;2.67;;;1.98;;
80539;SDS011;69869;48.036;15.780;2024-02-26T06:36:02;2.83;;;1.90;;
80539;SDS011;69869;48.036;15.780;2024-02-26T06:38:28;2.78;;;1.80;;
80539;SDS011;69869;48.036;15.780;2024-02-26T06:40:53;1.98;;;1.70;;
80539;SDS011;69869;48.036;15.780;2024-02-26T06:43:19;2.25;;;1.70;;
80539;SDS011;69869;48.036;15.780;2024-02-26T06:45:44;3.65;;;1.77;;
80539;SDS011;69869;48.036;15.780;2024-02-26T06:48:10;4.18;;;2.00;;
80539;SDS011;69869;48.036;15.780;2024-02-26T06:50:36;1.95;;;1.75;;
80539;SDS011;69869;48.036;15.780;2024-02-26T06:53:02;1.55;;;1.45;;
80539;SDS011;69869;48.036;15.780;2024-02-26T06:55:28;2.03;;;1.80;;
80539;SDS011;69869;48.036;15.780;2024-02-26T06:57:53;1.67;;;1.58;;
80539;SDS011;69869;48.036;15.780;2024-02-26T07:00:19;1.70;;;1.60;;
80539;SDS011;69869;48.036;15.780;2024-02-26T07:02:45;2.03;;;1.50;;
80539;SDS011;69869;48.036;15.780;2024-02-26T07:05:10;2.38;;;1.77;;
80539;SDS011;69869;48.036;15.780;2024-02-26T07:07:37;3.33;;;1.83;;
80539;SDS011;69869;48.036;15.780;2024-02-26T07:10:03;3.17;;;2.17;;
80539;SDS011;69869;48.036;15.780;2024-02-26T07:12:30;2.17;;;1.80;;
80539;SDS011;69869;48.036;15.780;2024-02-26T07:14:56;2.75;;;2.00;;
80539;SDS011;69869;48.036;15.780;2024-02-26T07:17:22;2.80;;;1.83;;
80539;SDS011;69869;48.036;15.780;2024-02-26T07:19:47;2.55;;;1.88;;
80539;SDS011;69869;48.036;15.780;2024-02-26T07:22:13;2.03;;;1.70;;
80539;SDS011;69869;48.036;15.780;2024-02-26T07:24:39;2.75;;;1.88;;
80539;SDS011;69869;48.036;15.780;2024-02-26T07:27:04;2.22;;;1.83;;
80539;SDS011;69869;48.036;15.780;2024-02-26T07:29:30;2.28;;;1.70;;
80539;SDS011;69869;48.036;15.780;2024-02-26T07:31:56;2.55;;;1.80;;
80539;SDS011;69869;48.036;15.780;2024-02-26T07:34:21;2.88;;;1.88;;
80539;SDS011;69869;48.036;15.780;2024-02-26T07:36:52;2.35;;;2.05;;
80539;SDS011;69869;48.036;15.780;2024-02-26T07:39:19;4.15;;;2.00;;
80539;SDS011;69869;48.036;15.780;2024-02-26T07:41:44;2.60;;;2.08;;
80539;SDS011;69869;48.036;15.780;2024-02-26T07:44:13;2.47;;;1.90;;
80539;SDS011;69869;48.036;15.780;2024-02-26T07:46:39;2.63;;;1.98;;
80539;SDS011;69869;48.036;15.780;2024-02-26T07:49:04;2.55;;;1.85;;
80539;SDS011;69869;48.036;15.780;2024-02-26T07:51:30;2.25;;;2.05;;
80539;SDS011;69869;48.036;15.780;2024-02-26T07:53:55;2.40;;;2.10;;
80539;SDS011;69869;48.036;15.780;2024-02-26T07:56:21;2.35;;;1.98;;
80539;SDS011;69869;48.036;15.780;2024-02-26T07:58:47;3.33;;;2.22;;
80539;SDS011;69869;48.036;15.780;2024-02-26T08:01:13;4.10;;;2.47;;
80539;SDS011;69869;48.036;15.780;2024-02-26T08:03:39;2.63;;;2.20;;
80539;SDS011;69869;48.036;15.780;2024-02-26T08:06:05;2.53;;;2.00;;
80539;SDS011;69869;48.036;15.780;2024-02-26T08:08:32;2.22;;;1.92;;
80539;SDS011;69869;48.036;15.780;2024-02-26T08:10:58;2.33;;;1.88;;
80539;SDS011;69869;48.036;15.780;2024-02-26T08:13:24;3.08;;;2.10;;
80539;SDS011;69869;48.036;15.780;2024-02-26T08:15:49;2.65;;;2.38;;
80539;SDS011;69869;48.036;15.780;2024-02-26T08:18:15;4.30;;;2.40;;
80539;SDS011;69869;48.036;15.780;2024-02-26T08:20:41;3.05;;;2.45;;
80539;SDS011;69869;48.036;15.780;2024-02-26T08:23:06;3.25;;;2.58;;
80539;SDS011;69869;48.036;15.780;2024-02-26T08:25:32;3.00;;;2.22;;
80539;SDS011;69869;48.036;15.780;2024-02-26T08:27:58;3.80;;;2.40;;
80539;SDS011;69869;48.036;15.780;2024-02-26T08:30:23;4.70;;;2.78;;
80539;SDS011;69869;48.036;15.780;2024-02-26T08:32:49;3.13;;;2.53;;
80539;SDS011;69869;48.036;15.780;2024-02-26T08:35:15;3.30;;;2.50;;
80539;SDS011;69869;48.036;15.780;2024-02-26T08:37:43;4.18;;;2.83;;
80539;SDS011;69869;48.036;15.780;2024-02-26T08:40:10;3.58;;;2.53;;
80539;SDS011;69869;48.036;15.780;2024-02-26T08:42:36;2.60;;;2.30;;
80539;SDS011;69869;48.036;15.780;2024-02-26T08:45:02;3.28;;;2.45;;
80539;SDS011;69869;48.036;15.780;2024-02-26T08:47:28;2.70;;;2.40;;
80539;SDS011;69869;48.036;15.780;2024-02-26T08:49:53;2.83;;;2.40;;
80539;SDS011;69869;48.036;15.780;2024-02-26T08:52:19;3.00;;;2.50;;
80539;SDS011;69869;48.036;15.780;2024-02-26T08:54:46;3.97;;;2.33;;
80539;SDS011;69869;48.036;15.780;2024-02-26T08:57:12;4.35;;;2.55;;
80539;SDS011;69869;48.036;15.780;2024-02-26T08:59:38;3.08;;;2.28;;
80539;SDS011;69869;48.036;15.780;2024-02-26T09:02:03;2.78;;;2.20;;
80539;SDS011;69869;48.036;15.780;2024-02-26T09:04:29;3.13;;;2.38;;
80539;SDS011;69869;48.036;15.780;2024-02-26T09:06:54;2.85;;;2.30;;
80539;SDS011;69869;48.036;15.780;2024-02-26T09:09:20;2.85;;;2.10;;
80539;SDS011;69869;48.036;15.780;2024-02-26T09:11:47;2.50;;;2.22;;
80539;SDS011;69869;48.036;15.780;2024-02-26T09:14:13;3.17;;;2.20;;
80539;SDS011;69869;48.036;15.780;2024-02-26T09:16:39;2.92;;;2.38;;
80539;SDS011;69869;48.036;15.780;2024-02-26T09:19:05;2.42;;;2.00;;
80539;SDS011;69869;48.036;15.780;2024-02-26T09:21:30;2.60;;;2.10;;
80539;SDS011;69869;48.036;15.780;2024-02-26T09:23:56;3.00;;;2.22;;
80539;SDS011;69869;48.036;15.780;2024-02-26T09:26:21;4.97;;;2.25;;
80539;SDS011;69869;48.036;15.780;2024-02-26T09:28:47;3.70;;;2.72;;
80539;SDS011;69869;48.036;15.780;2024-02-26T09:31:14;2.72;;;2.20;;
80539;SDS011;69869;48.036;15.780;2024-02-26T09:33:41;2.70;;;2.03;;
80539;SDS011;69869;48.036;15.780;2024-02-26T09:36:07;2.83;;;1.95;;
80539;SDS011;69869;48.036;15.780;2024-02-26T09:38:34;2.17;;;1.90;;
80539;SDS011;69869;48.036;15.780;2024-02-26T09:41:03;2.17;;;1.98;;
80539;SDS011;69869;48.036;15.780;2024-02-26T09:43:35;2.38;;;1.92;;
80539;SDS011;69869;48.036;15.780;2024-02-26T09:46:05;3.10;;;1.95;;
80539;SDS011;69869;48.036;15.780;2024-02-26T09:48:31;2.22;;;1.80;;
80539;SDS011;69869;48.036;15.780;2024-02-26T09:50:59;3.05;;;1.90;;
80539;SDS011;69869;48.036;15.780;2024-02-26T09:53:29;2.15;;;1.92;;
80539;SDS011;69869;48.036;15.780;2024-02-26T09:55:57;2.50;;;1.80;;
80539;SDS011;69869;48.036;15.780;2024-02-26T09:58:23;2.35;;;1.70;;
80539;SDS011;69869;48.036;15.780;2024-02-26T10:00:53;2.40;;;1.67;;
80539;SDS011;69869;48.036;15.780;2024-02-26T10:03:25;2.35;;;1.80;;
80539;SDS011;69869;48.036;15.780;2024-02-26T10:05:53;2.03;;;1.70;;
80539;SDS011;69869;48.036;15.780;2024-02-26T10:08:20;2.05;;;1.60;;
80539;SDS011;69869;48.036;15.780;2024-02-26T10:10:47;1.40;;;1.30;;
80539;SDS011;69869;48.036;15.780;2024-02-26T10:13:14;2.08;;;1.67;;
80539;SDS011;69869;48.036;15.780;2024-02-26T10:15:40;1.50;;;1.40;;
80539;SDS011;69869;48.036;15.780;2024-02-26T10:18:06;1.65;;;1.40;;
80539;SDS011;69869;48.036;15.780;2024-02-26T10:20:32;1.60;;;1.50;;
80539;SDS011;69869;48.036;15.780;2024-02-26T10:22:58;1.52;;;1.42;;
80539;SDS011;69869;48.036;15.780;2024-02-26T10:25:27;1.90;;;1.70;;
80539;SDS011;69869;48.036;15.780;2024-02-26T10:27:53;1.50;;;1.40;;
80539;SDS011;69869;48.036;15.780;2024-02-26T10:30:20;1.55;;;1.33;;
80539;SDS011;69869;48.036;15.780;2024-02-26T10:32:46;1.67;;;1.50;;
80539;SDS011;69869;48.036;15.780;2024-02-26T10:35:17;1.80;;;1.65;;
80539;SDS011;69869;48.036;15.780;2024-02-26T10:40:11;1.63;;;1.30;;
80539;SDS011;69869;48.036;15.780;2024-02-26T10:42:37;2.90;;;1.55;;
80539;SDS011;69869;48.036;15.780;2024-02-26T10:45:06;1.73;;;1.40;;
80539;SDS011;69869;48.036;15.780;2024-02-26T10:47:34;1.50;;;1.40;;
80539;SDS011;69869;48.036;15.780;2024-02-26T10:50:04;1.40;;;1.30;;
80539;SDS011;69869;48.036;15.780;2024-02-26T10:52:31;1.20;;;1.10;;
80539;SDS011;69869;48.036;15.780;2024-02-26T10:55:01;1.70;;;1.20;;
80539;SDS011;69869;48.036;15.780;2024-02-26T11:00:06;1.40;;;1.30;;
80539;SDS011;69869;48.036;15.780;2024-02-26T11:02:35;1.45;;;1.35;;
80539;SDS011;69869;48.036;15.780;2024-02-26T11:05:02;1.50;;;1.40;;
80539;SDS011;69869;48.036;15.780;2024-02-26T11:07:29;1.30;;;1.20;;
80539;SDS011;69869;48.036;15.780;2024-02-26T11:09:56;1.55;;;1.17;;
80539;SDS011;69869;48.036;15.780;2024-02-26T11:12:22;1.45;;;1.20;;
80539;SDS011;69869;48.036;15.780;2024-02-26T11:14:49;1.20;;;1.10;;
80539;SDS011;69869;48.036;15.780;2024-02-26T11:17:19;1.30;;;1.20;;
80539;SDS011;69869;48.036;15.780;2024-02-26T11:19:46;1.30;;;1.13;;
80539;SDS011;69869;48.036;15.780;2024-02-26T11:22:14;1.98;;;1.35;;
80539;SDS011;69869;48.036;15.780;2024-02-26T11:24:40;1.23;;;1.13;;
80539;SDS011;69869;48.036;15.780;2024-02-26T11:27:07;1.23;;;1.20;;
80539;SDS011;69869;48.036;15.780;2024-02-26T11:29:41;1.52;;;1.15;;
80539;SDS011;69869;48.036;15.780;2024-02-26T11:32:15;1.95;;;1.10;;
80539;SDS011;69869;48.036;15.780;2024-02-26T11:34:41;1.30;;;1.20;;
80539;SDS011;69869;48.036;15.780;2024-02-26T11:37:11;1.20;;;1.10;;
80539;SDS011;69869;48.036;15.780;2024-02-26T11:39:41;1.20;;;1.10;;
80539;SDS011;69869;48.036;15.780;2024-02-26T11:42:07;1.33;;;1.23;;
80539;SDS011;69869;48.036;15.780;2024-02-26T11:44:34;1.20;;;0.93;;
80539;SDS011;69869;48.036;15.780;2024-02-26T11:47:13;1.15;;;1.10;;
80539;SDS011;69869;48.036;15.780;2024-02-26T11:49:47;1.30;;;1.20;;
80539;SDS011;69869;48.036;15.780;2024-02-26T11:52:13;0.98;;;0.95;;
80539;SDS011;69869;48.036;15.780;2024-02-26T11:54:52;1.52;;;1.08;;
80539;SDS011;69869;48.036;15.780;2024-02-26T11:59:54;2.30;;;1.17;;
80539;SDS011;69869;48.036;15.780;2024-02-26T12:02:39;1.15;;;1.10;;
80539;SDS011;69869;48.036;15.780;2024-02-26T12:05:16;1.58;;;1.48;;
80539;SDS011;69869;48.036;15.780;2024-02-26T12:07:49;1.48;;;1.35;;
80539;SDS011;69869;48.036;15.780;2024-02-26T12:10:28;1.40;;;1.30;;
80539;SDS011;69869;48.036;15.780;2024-02-26T12:13:03;1.40;;;1.30;;
80539;SDS011;69869;48.036;15.780;2024-02-26T12:15:33;0.93;;;0.93;;
80539;SDS011;69869;48.036;15.780;2024-02-26T12:18:03;1.00;;;1.00;;
80539;SDS011;69869;48.036;15.780;2024-02-26T12:20:30;1.55;;;1.10;;
80539;SDS011;69869;48.036;15.780;2024-02-26T12:22:56;1.00;;;1.00;;
80539;SDS011;69869;48.036;15.780;2024-02-26T12:25:23;0.95;;;0.95;;
80539;SDS011;69869;48.036;15.780;2024-02-26T12:27:51;0.93;;;0.93;;
80539;SDS011;69869;48.036;15.780;2024-02-26T12:30:16;1.45;;;1.20;;
80539;SDS011;69869;48.036;15.780;2024-02-26T12:32:43;1.60;;;1.23;;
80539;SDS011;69869;48.036;15.780;2024-02-26T12:35:08;1.17;;;1.17;;
80539;SDS011;69869;48.036;15.780;2024-02-26T12:37:34;1.20;;;1.20;;
80539;SDS011;69869;48.036;15.780;2024-02-26T12:40:03;1.10;;;1.10;;
80539;SDS011;69869;48.036;15.780;2024-02-26T12:42:31;1.15;;;1.02;;
80539;SDS011;69869;48.036;15.780;2024-02-26T12:45:04;1.08;;;1.00;;
80539;SDS011;69869;48.036;15.780;2024-02-26T12:47:37;1.30;;;1.20;;
80539;SDS011;69869;48.036;15.780;2024-02-26T12:50:04;1.02;;;0.93;;
80539;SDS011;69869;48.036;15.780;2024-02-26T12:52:34;1.27;;;1.13;;
80539;SDS011;69869;48.036;15.780;2024-02-26T12:55:03;1.17;;;1.17;;
80539;SDS011;69869;48.036;15.780;2024-02-26T12:57:34;1.05;;;1.00;;
80539;SDS011;69869;48.036;15.780;2024-02-26T13:00:06;0.95;;;0.95;;
80539;SDS011;69869;48.036;15.780;2024-02-26T13:02:36;1.17;;;1.10;;
80539;SDS011;69869;48.036;15.780;2024-02-26T13:05:03;1.10;;;1.10;;
80539;SDS011;69869;48.036;15.780;2024-02-26T13:07:31;1.13;;;1.02;;
80539;SDS011;69869;48.036;15.780;2024-02-26T13:09:56;1.02;;;1.02;;
80539;SDS011;69869;48.036;15.780;2024-02-26T13:12:22;1.00;;;1.00;;
80539;SDS011;69869;48.036;15.780;2024-02-26T13:14:58;0.88;;;0.88;;
80539;SDS011;69869;48.036;15.780;2024-02-26T13:17:27;1.13;;;1.05;;
80539;SDS011;69869;48.036;15.780;2024-02-26T13:19:56;1.00;;;1.00;;
80539;SDS011;69869;48.036;15.780;2024-02-26T13:22:21;0.90;;;0.90;;
80539;SDS011;69869;48.036;15.780;2024-02-26T13:24:54;1.00;;;1.00;;
80539;SDS011;69869;48.036;15.780;2024-02-26T13:27:24;1.02;;;0.98;;
80539;SDS011;69869;48.036;15.780;2024-02-26T13:30:03;1.08;;;1.00;;
80539;SDS011;69869;48.036;15.780;2024-02-26T13:32:36;1.20;;;1.00;;
80539;SDS011;69869;48.036;15.780;2024-02-26T13:37:38;1.00;;;1.00;;
80539;SDS011;69869;48.036;15.780;2024-02-26T13:40:09;1.00;;;1.00;;
80539;SDS011;69869;48.036;15.780;2024-02-26T13:42:36;1.17;;;1.17;;
80539;SDS011;69869;48.036;15.780;2024-02-26T13:45:02;1.30;;;1.20;;
80539;SDS011;69869;48.036;15.780;2024-02-26T13:47:31;2.35;;;1.40;;
80539;SDS011;69869;48.036;15.780;2024-02-26T13:49:58;1.10;;;1.10;;
80539;SDS011;69869;48.036;15.780;2024-02-26T13:52:24;1.30;;;1.20;;
80539;SDS011;69869;48.036;15.780;2024-02-26T13:54:50;1.30;;;1.20;;
80539;SDS011;69869;48.036;15.780;2024-02-26T13:57:16;2.55;;;1.27;;
80539;SDS011;69869;48.036;15.780;2024-02-26T13:59:42;1.80;;;1.40;;
80539;SDS011;69869;48.036;15.780;2024-02-26T14:02:08;1.30;;;1.20;;
80539;SDS011;69869;48.036;15.780;2024-02-26T14:04:34;1.30;;;1.20;;
80539;SDS011;69869;48.036;15.780;2024-02-26T14:07:00;1.60;;;1.50;;
80539;SDS011;69869;48.036;15.780;2024-02-26T14:09:26;1.45;;;1.23;;
80539;SDS011;69869;48.036;15.780;2024-02-26T14:11:52;1.50;;;1.40;;
80539;SDS011;69869;48.036;15.780;2024-02-26T14:14:18;1.40;;;1.30;;
80539;SDS011;69869;48.036;15.780;2024-02-26T14:16:43;1.60;;;1.50;;
80539;SDS011;69869;48.036;15.780;2024-02-26T14:19:09;1.58;;;1.48;;
80539;SDS011;69869;48.036;15.780;2024-02-26T14:21:34;1.73;;;1.63;;
80539;SDS011;69869;48.036;15.780;2024-02-26T14:24:00;1.50;;;1.40;;
80539;SDS011;69869;48.036;15.780;2024-02-26T14:26:26;1.60;;;1.50;;
80539;SDS011;69869;48.036;15.780;2024-02-26T14:28:52;2.05;;;1.60;;
80539;SDS011;69869;48.036;15.780;2024-02-26T14:31:17;1.90;;;1.70;;
80539;SDS011;69869;48.036;15.780;2024-02-26T14:33:43;2.08;;;1.70;;
80539;SDS011;69869;48.036;15.780;2024-02-26T14:36:09;2.08;;;1.67;;
80539;SDS011;69869;48.036;15.780;2024-02-26T14:38:36;2.70;;;1.63;;
80539;SDS011;69869;48.036;15.780;2024-02-26T14:41:02;2.25;;;1.90;;